createdAt,value
2019-03-23T00:00:11.185Z,9.42
2019-03-23T00:02:43.477Z,9.35
2019-03-23T00:05:15.697Z,9.20
2019-03-23T00:07:46.401Z,9.09
2019-03-23T00:10:17.452Z,9.08
2019-03-23T00:12:48.141Z,9.05
2019-03-23T00:15:18.869Z,9.04
2019-03-23T00:17:49.592Z,9.11
2019-03-23T00:20:20.251Z,9.12
2019-03-23T00:22:51.220Z,9.06
2019-03-23T00:25:21.903Z,9.05
2019-03-23T00:27:52.560Z,9.06
2019-03-23T00:30:23.243Z,9.03
2019-03-23T00:32:54.241Z,8.88
2019-03-23T00:35:25.297Z,8.81
2019-03-23T00:37:55.946Z,8.83
2019-03-23T00:40:27.716Z,8.77
2019-03-23T00:42:58.368Z,8.84
2019-03-23T00:45:31.358Z,8.82
2019-03-23T00:48:01.726Z,8.72
2019-03-23T00:50:32.417Z,8.77
2019-03-23T00:53:03.124Z,8.80
2019-03-23T00:55:33.821Z,8.83
2019-03-23T00:58:04.854Z,8.73
2019-03-23T01:00:35.525Z,8.65
2019-03-23T01:03:06.460Z,8.66
2019-03-23T01:05:37.137Z,8.75
2019-03-23T01:08:07.799Z,8.70
2019-03-23T01:10:38.922Z,8.55
2019-03-23T01:13:09.857Z,8.65
2019-03-23T01:15:41.605Z,8.62
2019-03-23T01:18:12.258Z,8.69
2019-03-23T01:20:49.693Z,8.58
2019-03-23T01:23:15.648Z,8.56
2019-03-23T01:25:47.292Z,8.47
2019-03-23T01:28:17.990Z,8.43
2019-03-23T01:30:48.739Z,8.43
2019-03-23T01:33:19.453Z,8.53
2019-03-23T01:35:50.375Z,8.54
2019-03-23T01:38:21.394Z,8.58
2019-03-23T01:40:52.064Z,8.45
2019-03-23T01:43:22.767Z,8.34
2019-03-23T01:45:53.792Z,8.32
2019-03-23T01:48:24.750Z,8.32
2019-03-23T01:50:55.426Z,8.27
2019-03-23T01:53:26.402Z,8.15
2019-03-23T01:55:57.097Z,8.20
2019-03-23T01:58:27.766Z,8.17
2019-03-23T02:00:58.857Z,8.15
2019-03-23T02:03:29.619Z,8.12
2019-03-23T02:06:00.310Z,8.12
2019-03-23T02:08:30.995Z,8.17
2019-03-23T02:11:01.667Z,8.15
2019-03-23T02:13:32.355Z,8.19
2019-03-23T02:16:03.989Z,8.19
2019-03-23T02:18:35.687Z,8.15
2019-03-23T02:21:06.337Z,8.13
2019-03-23T02:23:37.417Z,8.01
2019-03-23T02:26:08.392Z,8.04
2019-03-23T02:28:39.046Z,8.13
2019-03-23T02:31:10.006Z,8.00
2019-03-23T02:33:40.708Z,8.03
2019-03-23T02:36:11.389Z,8.06
2019-03-23T02:38:42.355Z,8.07
2019-03-23T02:41:13.041Z,8.02
2019-03-23T02:43:44.019Z,8.06
2019-03-23T02:46:14.810Z,8.00
2019-03-23T02:48:45.509Z,7.98
2019-03-23T02:51:16.226Z,7.93
2019-03-23T02:53:47.279Z,7.95
2019-03-23T02:56:17.950Z,7.90
2019-03-23T02:58:48.625Z,7.86
2019-03-23T03:01:19.586Z,7.78
2019-03-23T03:03:50.274Z,7.71
2019-03-23T03:06:20.989Z,7.62
2019-03-23T03:08:51.663Z,7.59
2019-03-23T03:11:22.705Z,7.59
2019-03-23T03:13:53.652Z,7.63
2019-03-23T03:16:24.706Z,7.67
2019-03-23T03:18:55.921Z,7.66
2019-03-23T03:21:26.697Z,7.58
2019-03-23T03:23:57.343Z,7.57
2019-03-23T03:26:28.347Z,7.68
2019-03-23T03:28:59.009Z,7.63
2019-03-23T03:31:29.698Z,7.60
2019-03-23T03:34:00.384Z,7.66
2019-03-23T03:36:31.080Z,7.64
2019-03-23T03:39:01.763Z,7.68
2019-03-23T03:41:34.188Z,7.80
2019-03-23T03:44:06.076Z,7.74
2019-03-23T03:46:36.780Z,7.63
2019-03-23T03:49:12.692Z,7.61
2019-03-23T03:51:39.824Z,7.61
2019-03-23T03:54:10.505Z,7.51
2019-03-23T03:56:41.237Z,7.42
2019-03-23T03:59:11.906Z,7.44
2019-03-23T04:01:42.892Z,7.61
2019-03-23T04:04:13.593Z,7.49
2019-03-23T04:06:44.667Z,7.48
2019-03-23T04:09:15.714Z,7.42
2019-03-23T04:11:46.468Z,7.32
2019-03-23T04:14:17.139Z,7.37
2019-03-23T04:16:47.843Z,7.45
2019-03-23T04:19:18.588Z,7.30
2019-03-23T04:21:49.276Z,7.24
2019-03-23T04:24:19.943Z,7.17
2019-03-23T04:26:50.697Z,7.18
2019-03-23T04:29:21.369Z,7.13
2019-03-23T04:31:52.040Z,7.21
2019-03-23T04:34:22.741Z,7.21
2019-03-23T04:36:53.424Z,7.15
2019-03-23T04:39:24.101Z,7.15
2019-03-23T04:41:54.842Z,7.14
2019-03-23T04:44:25.875Z,7.04
2019-03-23T04:46:56.813Z,7.03
2019-03-23T04:49:27.763Z,7.03
2019-03-23T04:51:58.772Z,7.01
2019-03-23T04:54:29.432Z,7.02
2019-03-23T04:57:00.130Z,6.99
2019-03-23T04:59:31.093Z,6.93
2019-03-23T05:02:02.129Z,6.94
2019-03-23T05:04:32.795Z,6.96
2019-03-23T05:07:03.554Z,7.04
2019-03-23T05:09:34.530Z,7.04
2019-03-23T05:12:05.644Z,7.16
2019-03-23T05:14:36.643Z,7.21
2019-03-23T05:17:07.307Z,7.18
2019-03-23T05:19:38.302Z,7.11
2019-03-23T05:22:08.974Z,7.05
2019-03-23T05:24:39.681Z,7.11
2019-03-23T05:27:10.365Z,7.10
2019-03-23T05:29:41.038Z,7.09
2019-03-23T05:32:12.053Z,7.13
2019-03-23T05:34:42.774Z,7.19
2019-03-23T05:37:14.736Z,7.29
2019-03-23T05:39:45.673Z,7.31
2019-03-23T05:42:16.356Z,7.29
2019-03-23T05:44:47.038Z,7.39
2019-03-23T05:47:17.718Z,7.38
2019-03-23T05:49:48.451Z,7.47
2019-03-23T05:52:19.464Z,7.50
2019-03-23T05:54:50.179Z,7.73
2019-03-23T05:57:20.854Z,8.02
2019-03-23T05:59:51.784Z,8.24
2019-03-23T06:02:22.783Z,8.51
2019-03-23T06:04:53.810Z,8.55
2019-03-23T06:07:24.860Z,8.62
2019-03-23T06:09:55.908Z,8.61
2019-03-23T06:12:26.939Z,8.47
2019-03-23T06:14:58.080Z,8.50
2019-03-23T06:17:29.128Z,8.41
2019-03-23T06:19:59.824Z,8.41
2019-03-23T06:22:30.788Z,8.46
2019-03-23T06:25:01.856Z,8.45
2019-03-23T06:27:32.863Z,8.55
2019-03-23T06:30:03.778Z,8.68
2019-03-23T06:32:34.840Z,8.70
2019-03-23T06:35:08.066Z,8.77
2019-03-23T06:37:38.910Z,8.80
2019-03-23T06:40:13.674Z,8.90
2019-03-23T06:42:44.342Z,8.98
2019-03-23T06:45:15.353Z,9.01
2019-03-23T06:47:46.016Z,9.17
2019-03-23T06:50:16.715Z,9.17
2019-03-23T06:52:47.678Z,9.36
2019-03-23T06:55:18.397Z,9.40
2019-03-23T06:57:49.433Z,9.46
2019-03-23T07:00:20.798Z,9.48
2019-03-23T07:02:51.493Z,9.57
2019-03-23T07:05:23.344Z,9.70
2019-03-23T07:07:54.315Z,9.81
2019-03-23T07:10:25.362Z,9.94
2019-03-23T07:12:56.030Z,10.11
2019-03-23T07:15:27.554Z,10.19
2019-03-23T07:17:58.239Z,10.27
2019-03-23T07:20:29.732Z,10.27
2019-03-23T07:23:00.965Z,10.59
2019-03-23T07:25:32.016Z,10.65
2019-03-23T07:28:02.686Z,10.73
2019-03-23T07:30:33.376Z,10.91
2019-03-23T07:33:04.321Z,11.00
2019-03-23T07:35:35.964Z,11.10
2019-03-23T07:38:09.500Z,11.24
2019-03-23T07:40:40.534Z,11.41
2019-03-23T07:43:11.547Z,11.58
2019-03-23T07:45:42.212Z,11.64
2019-03-23T07:48:13.224Z,11.73
2019-03-23T07:50:44.179Z,11.86
2019-03-23T07:53:14.884Z,12.05
2019-03-23T07:55:45.937Z,12.17
2019-03-23T07:58:16.872Z,12.20
2019-03-23T08:00:47.913Z,12.32
2019-03-23T08:03:18.658Z,12.44
2019-03-23T08:05:49.705Z,12.62
2019-03-23T08:08:20.844Z,12.66
2019-03-23T08:10:51.854Z,12.91
2019-03-23T08:13:22.714Z,13.11
2019-03-23T08:15:53.629Z,13.19
2019-03-23T08:18:24.322Z,13.45
2019-03-23T08:20:55.298Z,13.58
2019-03-23T08:23:26.018Z,13.75
2019-03-23T08:25:56.697Z,13.82
2019-03-23T08:28:27.385Z,13.97
2019-03-23T08:30:58.118Z,14.01
2019-03-23T08:33:30.214Z,14.13
2019-03-23T08:36:01.591Z,14.16
2019-03-23T08:38:32.676Z,14.35
2019-03-23T08:41:03.742Z,14.51
2019-03-23T08:43:34.763Z,14.69
2019-03-23T08:46:05.881Z,14.78
2019-03-23T08:48:36.582Z,14.85
2019-03-23T08:51:07.260Z,14.97
2019-03-23T08:53:38.300Z,15.15
2019-03-23T08:56:09.939Z,15.35
2019-03-23T08:58:38.955Z,15.52
2019-03-23T09:01:09.719Z,15.89
2019-03-23T09:03:40.409Z,16.35
2019-03-23T09:06:11.352Z,17.00
2019-03-23T09:08:42.072Z,17.77
2019-03-23T09:11:20.413Z,18.52
2019-03-23T09:13:45.423Z,18.95
2019-03-23T09:16:16.338Z,19.80
2019-03-23T09:18:47.046Z,20.41
2019-03-23T09:21:18.000Z,21.14
2019-03-23T09:23:49.951Z,20.94
2019-03-23T09:26:20.620Z,21.61
2019-03-23T09:28:51.588Z,22.15
2019-03-23T09:31:22.545Z,22.43
2019-03-23T09:33:53.242Z,21.91
2019-03-23T09:36:24.220Z,22.18
2019-03-23T09:38:55.134Z,22.57
2019-03-23T09:41:26.104Z,22.50
2019-03-23T09:43:57.141Z,23.15
2019-03-23T09:46:27.820Z,23.35
2019-03-23T09:48:58.771Z,24.35
2019-03-23T09:51:29.751Z,24.48
2019-03-23T09:54:00.768Z,24.41
2019-03-23T09:56:31.450Z,24.96
2019-03-23T09:59:02.169Z,24.50
2019-03-23T10:01:33.562Z,24.17
2019-03-23T10:04:05.158Z,24.59
2019-03-23T10:06:37.060Z,25.06
2019-03-23T10:09:08.392Z,25.91
2019-03-23T10:11:39.344Z,25.98
2019-03-23T10:14:10.303Z,26.05
2019-03-23T10:16:40.990Z,26.57
2019-03-23T10:19:12.002Z,26.57
2019-03-23T10:21:43.057Z,26.44
2019-03-23T10:24:13.725Z,26.32
2019-03-23T10:26:44.698Z,25.74
2019-03-23T10:29:15.638Z,24.97
2019-03-23T10:31:46.302Z,24.96
2019-03-23T10:34:17.226Z,25.58
2019-03-23T10:36:48.858Z,26.15
2019-03-23T10:39:20.060Z,26.70
2019-03-23T10:41:51.062Z,26.64
2019-03-23T10:44:22.047Z,26.55
2019-03-23T10:46:52.701Z,26.39
2019-03-23T10:49:23.942Z,26.67
2019-03-23T10:51:54.865Z,26.25
2019-03-23T10:54:26.896Z,25.91
2019-03-23T10:56:57.972Z,25.71
2019-03-23T10:59:29.335Z,26.03
2019-03-23T11:02:00.703Z,26.33
2019-03-23T11:04:31.689Z,26.55
2019-03-23T11:07:02.441Z,25.98
2019-03-23T11:09:33.408Z,26.00
2019-03-23T11:12:04.400Z,25.58
2019-03-23T11:14:35.267Z,26.03
2019-03-23T11:17:06.139Z,25.98
2019-03-23T11:19:37.926Z,25.86
2019-03-23T11:22:09.176Z,25.54
2019-03-23T11:24:40.141Z,25.92
2019-03-23T11:27:11.099Z,26.05
2019-03-23T11:29:41.802Z,26.49
2019-03-23T11:32:12.791Z,25.80
2019-03-23T11:34:43.800Z,25.28
2019-03-23T11:37:14.791Z,25.59
2019-03-23T11:39:46.723Z,25.78
2019-03-23T11:42:17.431Z,26.18
2019-03-23T11:44:49.305Z,26.18
2019-03-23T11:47:20.348Z,26.52
2019-03-23T11:49:51.038Z,26.46
2019-03-23T11:52:22.011Z,26.63
2019-03-23T11:54:52.710Z,26.47
2019-03-23T11:57:23.665Z,26.27
2019-03-23T11:59:54.604Z,25.87
2019-03-23T12:02:25.546Z,26.04
2019-03-23T12:04:56.489Z,25.59
2019-03-23T12:07:27.690Z,24.84
2019-03-23T12:09:59.046Z,25.09
2019-03-23T12:12:29.962Z,25.89
2019-03-23T12:15:00.771Z,26.13
2019-03-23T12:17:31.450Z,25.89
2019-03-23T12:20:02.558Z,25.59
2019-03-23T12:22:33.572Z,25.15
2019-03-23T12:25:05.388Z,25.64
2019-03-23T12:27:36.075Z,25.64
2019-03-23T12:30:11.401Z,25.56
2019-03-23T12:32:42.093Z,25.11
2019-03-23T12:35:13.186Z,24.89
2019-03-23T12:37:44.111Z,24.27
2019-03-23T12:40:15.343Z,23.75
2019-03-23T12:42:46.021Z,23.48
2019-03-23T12:45:17.421Z,23.16
2019-03-23T12:47:48.338Z,22.65
2019-03-23T12:50:19.034Z,22.25
2019-03-23T12:52:50.101Z,22.14
2019-03-23T12:55:20.787Z,22.11
2019-03-23T12:57:51.481Z,22.09
2019-03-23T13:00:22.209Z,22.03
2019-03-23T13:02:52.919Z,22.05
2019-03-23T13:05:23.601Z,22.07
2019-03-23T13:07:54.681Z,22.06
2019-03-23T13:10:25.352Z,21.91
2019-03-23T13:12:58.436Z,21.80
2019-03-23T13:15:30.016Z,21.77
2019-03-23T13:18:02.943Z,21.85
2019-03-23T13:23:02.899Z,21.46
2019-03-23T13:25:33.582Z,21.53
2019-03-23T13:28:04.545Z,21.35
2019-03-23T13:30:35.577Z,21.33
2019-03-23T13:33:07.733Z,21.42
2019-03-23T13:35:39.936Z,21.50
2019-03-23T13:38:10.616Z,21.58
2019-03-23T13:40:41.714Z,21.72
2019-03-23T13:43:12.986Z,21.54
2019-03-23T13:45:46.395Z,21.55
2019-03-23T13:48:18.459Z,21.24
2019-03-23T13:50:50.826Z,21.13
2019-03-23T13:53:22.382Z,21.00
2019-03-23T13:55:56.757Z,20.93
2019-03-23T13:58:31.368Z,21.32
2019-03-23T14:01:02.355Z,21.28
2019-03-23T14:03:33.273Z,21.34
2019-03-23T14:06:04.288Z,21.24
2019-03-23T14:08:35.237Z,21.45
2019-03-23T14:11:06.237Z,21.57
2019-03-23T14:13:44.571Z,21.59
2019-03-23T14:16:18.656Z,21.58
2019-03-23T14:18:51.570Z,21.42
2019-03-23T14:21:24.968Z,21.44
2019-03-23T14:24:00.052Z,21.57
2019-03-23T14:26:37.435Z,21.70
2019-03-23T14:29:08.167Z,21.46
2019-03-23T14:31:38.823Z,21.39
2019-03-23T14:34:09.816Z,21.40
2019-03-23T14:36:40.842Z,21.34
2019-03-23T14:39:11.896Z,21.40
2019-03-23T14:41:42.929Z,21.43
2019-03-23T14:44:13.607Z,21.48
2019-03-23T14:46:44.639Z,21.46
2019-03-23T14:49:15.413Z,21.31
2019-03-23T14:51:46.128Z,21.14
2019-03-23T14:54:17.122Z,21.13
2019-03-23T14:56:48.161Z,21.37
2019-03-23T14:59:19.390Z,21.28
2019-03-23T15:01:50.968Z,21.45
2019-03-23T15:04:21.999Z,21.36
2019-03-23T15:06:52.710Z,21.16
2019-03-23T15:09:23.469Z,21.23
2019-03-23T15:11:54.494Z,21.20
2019-03-23T15:14:25.435Z,21.01
2019-03-23T15:16:56.475Z,21.07
2019-03-23T15:19:27.180Z,21.25
2019-03-23T15:21:57.873Z,21.11
2019-03-23T15:24:28.987Z,21.12
2019-03-23T15:26:59.926Z,21.08
2019-03-23T15:29:30.677Z,20.76
2019-03-23T15:32:01.717Z,20.67
2019-03-23T15:34:32.473Z,20.34
2019-03-23T15:37:03.266Z,20.41
2019-03-23T15:39:34.324Z,20.26
2019-03-23T15:42:07.352Z,20.13
2019-03-23T15:44:40.342Z,20.03
2019-03-23T15:47:11.663Z,20.05
2019-03-23T15:49:42.456Z,20.11
2019-03-23T15:52:16.077Z,20.04
2019-03-23T15:54:47.152Z,19.81
2019-03-23T15:57:18.270Z,19.86
2019-03-23T15:59:48.950Z,19.86
2019-03-23T16:02:19.973Z,19.92
2019-03-23T16:04:50.969Z,19.73
2019-03-23T16:07:29.204Z,19.61
2019-03-23T16:09:57.213Z,19.65
2019-03-23T16:12:34.913Z,19.66
2019-03-23T16:14:59.971Z,19.60
2019-03-23T16:17:30.677Z,19.58
2019-03-23T16:20:01.356Z,19.60
2019-03-23T16:22:32.355Z,19.44
2019-03-23T16:25:03.223Z,19.39
2019-03-23T16:27:33.986Z,19.23
2019-03-23T16:30:10.747Z,19.18
2019-03-23T16:32:42.728Z,19.09
2019-03-23T16:35:13.599Z,18.97
2019-03-23T16:37:44.649Z,18.87
2019-03-23T16:40:15.881Z,18.87
2019-03-23T16:42:46.536Z,18.70
2019-03-23T16:45:18.864Z,18.52
2019-03-23T16:47:49.948Z,18.51
2019-03-23T16:50:20.824Z,18.42
2019-03-23T16:52:52.128Z,18.27
2019-03-23T16:55:22.831Z,18.22
2019-03-23T16:57:53.836Z,18.17
2019-03-23T17:00:39.187Z,18.00
2019-03-23T17:03:10.221Z,17.94
2019-03-23T17:05:41.261Z,17.86
2019-03-23T17:08:11.918Z,17.76
2019-03-23T17:10:43.691Z,17.59
2019-03-23T17:13:14.662Z,17.37
2019-03-23T17:15:45.620Z,17.25
2019-03-23T17:18:16.656Z,17.13
2019-03-23T17:20:47.595Z,17.08
2019-03-23T17:23:18.296Z,16.87
2019-03-23T17:25:48.957Z,16.84
2019-03-23T17:28:20.025Z,16.59
2019-03-23T17:30:50.678Z,16.40
2019-03-23T17:33:21.667Z,16.27
2019-03-23T17:35:52.334Z,16.10
2019-03-23T17:38:23.362Z,16.00
2019-03-23T17:40:54.043Z,16.02
2019-03-23T17:43:25.025Z,15.77
2019-03-23T17:45:56.075Z,15.83
2019-03-23T17:48:27.107Z,15.71
2019-03-23T17:50:58.164Z,15.53
2019-03-23T17:53:28.822Z,15.42
2019-03-23T17:55:59.498Z,15.24
2019-03-23T17:58:30.156Z,15.20
2019-03-23T18:01:01.343Z,15.13
2019-03-23T18:03:32.037Z,14.91
2019-03-23T18:06:02.729Z,14.84
2019-03-23T18:08:33.752Z,14.60
2019-03-23T18:11:04.425Z,14.66
2019-03-23T18:13:35.464Z,14.69
2019-03-23T18:16:06.127Z,14.57
2019-03-23T18:18:37.170Z,14.49
2019-03-23T18:21:07.909Z,14.42
2019-03-23T18:23:38.654Z,14.18
2019-03-23T18:26:09.648Z,14.07
2019-03-23T18:28:40.355Z,14.07
2019-03-23T18:31:11.017Z,14.11
2019-03-23T18:33:41.851Z,14.02
2019-03-23T18:36:12.543Z,13.93
2019-03-23T18:38:43.261Z,13.79
2019-03-23T18:41:14.267Z,13.76
2019-03-23T18:43:45.303Z,13.66
2019-03-23T18:46:16.958Z,13.62
2019-03-23T18:48:48.004Z,13.70
2019-03-23T18:51:18.677Z,13.49
2019-03-23T18:53:49.355Z,13.55
2019-03-23T18:56:21.435Z,13.38
2019-03-23T18:58:52.168Z,13.32
2019-03-23T19:01:23.404Z,13.16
2019-03-23T19:03:54.093Z,13.24
2019-03-23T19:06:24.773Z,13.17
2019-03-23T19:08:56.137Z,13.16
2019-03-23T19:11:27.098Z,13.06
2019-03-23T19:13:58.107Z,13.01
2019-03-23T19:16:29.180Z,12.95
2019-03-23T19:18:59.873Z,12.92
2019-03-23T19:21:30.930Z,12.92
2019-03-23T19:24:01.961Z,12.79
2019-03-23T19:26:32.946Z,12.81
2019-03-23T19:29:03.947Z,12.71
2019-03-23T19:31:34.627Z,12.58
2019-03-23T19:34:05.303Z,12.45
2019-03-23T19:36:36.296Z,12.35
2019-03-23T19:39:09.168Z,12.36
2019-03-23T19:41:40.204Z,12.48
2019-03-23T19:44:12.750Z,12.53
2019-03-23T19:46:43.793Z,12.41
2019-03-23T19:49:14.842Z,12.28
2019-03-23T19:51:45.831Z,12.20
2019-03-23T19:54:16.505Z,11.94
2019-03-23T19:56:47.532Z,12.05
2019-03-23T19:59:18.574Z,12.09
2019-03-23T20:01:49.274Z,12.10
2019-03-23T20:04:19.965Z,12.21
2019-03-23T20:06:50.997Z,12.26
2019-03-23T20:09:21.674Z,12.29
2019-03-23T20:11:52.349Z,12.25
2019-03-23T20:14:23.421Z,12.24
2019-03-23T20:16:54.373Z,12.12
2019-03-23T20:19:26.105Z,11.84
2019-03-23T20:21:57.759Z,11.99
2019-03-23T20:24:29.397Z,12.10
2019-03-23T20:27:00.122Z,12.13
2019-03-23T20:29:31.182Z,12.14
2019-03-23T20:32:02.241Z,11.93
2019-03-23T20:34:33.276Z,11.84
2019-03-23T20:37:03.989Z,11.62
2019-03-23T20:39:34.889Z,11.61
2019-03-23T20:42:06.289Z,11.40
2019-03-23T20:44:37.448Z,11.19
2019-03-23T20:47:08.675Z,11.08
2019-03-23T20:49:40.050Z,11.06
2019-03-23T20:52:10.724Z,11.09
2019-03-23T20:54:41.847Z,10.96
2019-03-23T20:57:23.197Z,10.99
2019-03-23T20:59:45.217Z,10.99
2019-03-23T21:02:16.264Z,10.85
2019-03-23T21:04:46.924Z,10.91
2019-03-23T21:07:17.610Z,10.86
2019-03-23T21:09:48.660Z,10.76
2019-03-23T21:12:20.636Z,10.82
2019-03-23T21:14:52.450Z,10.86
2019-03-23T21:17:23.223Z,10.75
2019-03-23T21:19:53.949Z,10.71
2019-03-23T21:22:25.388Z,10.65
2019-03-23T21:24:56.136Z,10.75
2019-03-23T21:27:27.387Z,10.81
2019-03-23T21:29:58.047Z,10.80
2019-03-23T21:32:28.749Z,10.72
2019-03-23T21:34:59.678Z,10.72
2019-03-23T21:37:30.385Z,10.67
2019-03-23T21:40:02.291Z,10.74
2019-03-23T21:42:33.331Z,10.78
2019-03-23T21:45:05.979Z,10.76
2019-03-23T21:47:37.044Z,10.84
2019-03-23T21:50:08.722Z,10.73
2019-03-23T21:52:39.537Z,10.90
2019-03-23T21:55:11.099Z,10.91
2019-03-23T21:57:42.123Z,10.95
2019-03-23T22:00:16.569Z,10.91
2019-03-23T22:02:47.583Z,10.87
2019-03-23T22:05:18.303Z,10.87
2019-03-23T22:07:48.955Z,10.92
2019-03-23T22:10:20.008Z,10.88
2019-03-23T22:12:50.662Z,10.90
2019-03-23T22:15:21.631Z,10.82
2019-03-23T22:17:52.594Z,10.68
2019-03-23T22:20:23.657Z,10.78
2019-03-23T22:22:54.345Z,10.85
2019-03-23T22:25:25.313Z,10.77
2019-03-23T22:27:56.370Z,10.77
2019-03-23T22:30:27.282Z,10.81
2019-03-23T22:32:59.834Z,10.85
2019-03-23T22:35:32.351Z,10.66
2019-03-23T22:38:03.401Z,10.78
2019-03-23T22:40:34.330Z,10.83
2019-03-23T22:43:05.079Z,10.63
2019-03-23T22:45:36.122Z,10.62
2019-03-23T22:48:07.045Z,10.65
2019-03-23T22:50:37.753Z,10.45
2019-03-23T22:53:10.427Z,10.41
2019-03-23T22:55:41.409Z,10.46
2019-03-23T22:58:12.446Z,10.42
2019-03-23T23:00:47.522Z,10.47
2019-03-23T23:03:18.510Z,10.42
2019-03-23T23:05:49.450Z,10.43
2019-03-23T23:08:20.147Z,10.36
2019-03-23T23:10:51.125Z,10.26
2019-03-23T23:13:22.196Z,10.16
2019-03-23T23:15:53.205Z,10.30
2019-03-23T23:18:24.247Z,10.14
2019-03-23T23:20:55.186Z,10.08
2019-03-23T23:23:26.136Z,10.15
2019-03-23T23:25:57.170Z,10.14
2019-03-23T23:28:28.316Z,10.16
2019-03-23T23:30:59.052Z,10.12
2019-03-23T23:33:29.741Z,10.09
2019-03-23T23:36:00.411Z,10.06
2019-03-23T23:38:31.082Z,10.11
2019-03-23T23:41:01.764Z,10.16
2019-03-23T23:43:32.669Z,10.05
2019-03-23T23:46:03.390Z,10.13
2019-03-23T23:48:34.054Z,10.15
2019-03-23T23:51:04.756Z,10.13
2019-03-23T23:53:35.421Z,10.13
2019-03-23T23:56:06.451Z,10.09
2019-03-23T23:58:37.429Z,10.06
